»·PEaware :: N915TB KEMT-KIPL

N915TB :: KEMT-KIPL

FLIGHT INFORMATION

Flight Status: Arrived
Operator: Privately registered:
United States
More flights under this callsign
Pilot: Jake M. (20491)
Aircraft: SOCATA TBM-900
(TBM9)
More flights by this aircraft type
Origin: KEMT El Monte
United States
Destination: KIPL Imperial Co
United States
More flights between these airports :: More routes between these airports
Route: +19DP PDZ V186 NIKKL V64 TRM V137 BRAWL
File this flight plan on PilotEdge
Remarks:
Altitude:
(Current/Filed)
19,000ft
Speed:
(Current/Filed)
285kts
Departed: 25-Oct-19 03:03 PM
Arrived: 25-Oct-19 03:47 PM
Distance/Time
Traveled:
144nm/0:44
Distance/Time
To Go:
Arrived

Flight Plot

Page will automatically refresh every two minutes.

Flight plan parsing failed; only flown route is shown


Map Options




Map Legend


Flown Route
Filed Route
Departure Airport
Arrival Airport
Navaid (VOR, NDB)
Fix

Horizontal Profiles

Position Reports

Time Latitude Longitude Heading Altitude Ground
Speed
25-Oct-19 14:48 34.084457 -118.034782 28 286ft 0kts
25-Oct-19 14:49 34.084457 -118.034782 28 286ft 0kts
25-Oct-19 14:50 34.084457 -118.034782 28 286ft 0kts
25-Oct-19 14:51 34.084457 -118.034782 28 286ft 0kts
25-Oct-19 14:52 34.084457 -118.034782 28 286ft 0kts
25-Oct-19 14:53 34.084457 -118.034782 28 286ft 0kts
25-Oct-19 14:54 34.084457 -118.034782 28 286ft 0kts
25-Oct-19 14:55 34.084457 -118.034782 28 286ft 0kts
25-Oct-19 14:56 34.084457 -118.034782 28 286ft 0kts
25-Oct-19 14:57 34.084457 -118.034782 28 286ft 0kts
25-Oct-19 14:58 34.084457 -118.034782 28 286ft 0kts
25-Oct-19 14:59 34.084525 -118.034746 354 286ft 0kts
25-Oct-19 15:00 34.086659 -118.033811 28 288ft 16kts
25-Oct-19 15:01 34.090721 -118.031599 313 293ft 0kts
25-Oct-19 15:02 34.086120 -118.034805 205 286ft 97kts
25-Oct-19 15:03 34.051996 -118.052409 204 1515ft 151kts
25-Oct-19 15:04 34.035080 -118.022182 79 3006ft 177kts
25-Oct-19 15:05 34.044309 -117.958846 94 3491ft 180kts
25-Oct-19 15:06 34.044011 -117.903775 94 4950ft 172kts
25-Oct-19 15:07 34.030349 -117.844789 108 6010ft 198kts
25-Oct-19 15:08 34.007975 -117.778804 110 6009ft 222kts
25-Oct-19 15:09 33.983269 -117.708722 110 6001ft 228kts
25-Oct-19 15:10 33.958745 -117.640615 111 6829ft 213kts
25-Oct-19 15:11 33.935426 -117.576727 111 7798ft 203kts
25-Oct-19 15:12 33.906462 -117.520072 142 8808ft 206kts
25-Oct-19 15:13 33.864953 -117.485192 142 10101ft 209kts
25-Oct-19 15:14 33.816144 -117.444281 142 11364ft 217kts
25-Oct-19 15:15 33.765588 -117.401974 142 12681ft 224kts
25-Oct-19 15:16 33.728927 -117.347161 93 14010ft 220kts
25-Oct-19 15:17 33.722900 -117.273230 93 15206ft 224kts
25-Oct-19 15:18 33.716784 -117.197661 93 16299ft 228kts
25-Oct-19 15:19 33.710497 -117.120596 92 17402ft 233kts
25-Oct-19 15:20 33.704064 -117.042327 92 18610ft 237kts
25-Oct-19 15:21 33.697296 -116.960549 92 19055ft 262kts
25-Oct-19 15:22 33.689679 -116.869324 92 19070ft 281kts
25-Oct-19 15:23 33.681630 -116.774027 92 19065ft 288kts
25-Oct-19 15:24 33.673397 -116.677290 92 19063ft 290kts
25-Oct-19 15:25 33.665091 -116.580651 92 19064ft 292kts
25-Oct-19 15:26 33.656586 -116.482267 92 18407ft 303kts
25-Oct-19 15:27 33.647621 -116.380068 92 17422ft 309kts
25-Oct-19 15:28 33.638502 -116.276745 93 16422ft 310kts
25-Oct-19 15:29 33.628629 -116.173569 103 15394ft 312kts
25-Oct-19 15:30 33.563431 -116.104323 142 14383ft 318kts
25-Oct-19 15:31 33.493301 -116.043926 142 14000ft 294kts
25-Oct-19 15:32 33.425415 -115.985528 142 12423ft 311kts
25-Oct-19 15:33 33.355121 -115.925168 142 10959ft 306kts
25-Oct-19 15:34 33.286761 -115.866627 142 9605ft 295kts
25-Oct-19 15:35 33.222528 -115.811744 142 8327ft 275kts
25-Oct-19 15:36 33.160989 -115.759221 141 7127ft 269kts
25-Oct-19 15:37 33.100271 -115.707507 140 5942ft 266kts
25-Oct-19 15:39 33.040358 -115.656549 140 4771ft 265kts
25-Oct-19 15:40 32.978138 -115.609310 153 3562ft 269kts
25-Oct-19 15:41 32.911475 -115.571287 149 2593ft 263kts
25-Oct-19 15:42 32.846392 -115.529561 148 1499ft 263kts
25-Oct-19 15:43 32.790352 -115.492146 148 1477ft 202kts
25-Oct-19 15:44 32.761264 -115.513036 298 1205ft 172kts
25-Oct-19 15:45 32.794248 -115.549738 329 742ft 163kts
25-Oct-19 15:46 32.829289 -115.571160 330 -24ft 105kts
25-Oct-19 15:47 32.838230 -115.575686 152 -48ft 15kts
25-Oct-19 15:48 32.836522 -115.573775 242 -45ft 0kts
25-Oct-19 15:49 32.836522 -115.573775 242 -45ft 0kts
25-Oct-19 15:50 32.836522 -115.573775 242 -45ft 0kts
25-Oct-19 15:51 32.836522 -115.573775 242 -45ft 0kts
25-Oct-19 15:52 32.836522 -115.573775 242 -45ft 0kts
25-Oct-19 15:53 32.836522 -115.573775 242 -45ft 0kts
25-Oct-19 15:54 32.836522 -115.573775 242 -45ft 0kts
25-Oct-19 15:55 32.836522 -115.573775 242 -45ft 0kts
25-Oct-19 15:56 32.836522 -115.573775 242 -45ft 0kts
25-Oct-19 15:57 32.836522 -115.573775 242 -45ft 0kts
25-Oct-19 15:57 32.836522 -115.573775 242 -45ft 0kts
25-Oct-19 15:59 32.836522 -115.573775 242 -45ft 0kts
25-Oct-19 16:00 32.836522 -115.573775 242 -45ft 0kts
25-Oct-19 16:00 32.836522 -115.573775 242 -45ft 0kts

Navigation Log

Ident Type
Flight plan parsing failed, navigation log unavailable